sensor_id;sensor_type;location;lat;lon;timestamp;P1;durP1;ratioP1;P2;durP2;ratioP2
66425;SDS011;53237;46.158;14.604;2023-04-25T00:00:40;6.25;;;5.75;;
66425;SDS011;53237;46.158;14.604;2023-04-25T00:03:06;6.15;;;5.65;;
66425;SDS011;53237;46.158;14.604;2023-04-25T00:05:33;11.20;;;10.10;;
66425;SDS011;53237;46.158;14.604;2023-04-25T00:08:02;12.57;;;11.38;;
66425;SDS011;53237;46.158;14.604;2023-04-25T00:10:28;7.30;;;6.70;;
66425;SDS011;53237;46.158;14.604;2023-04-25T00:12:54;7.50;;;6.82;;
66425;SDS011;53237;46.158;14.604;2023-04-25T00:15:20;7.80;;;7.10;;
66425;SDS011;53237;46.158;14.604;2023-04-25T00:17:46;8.30;;;7.43;;
66425;SDS011;53237;46.158;14.604;2023-04-25T00:20:13;7.53;;;6.72;;
66425;SDS011;53237;46.158;14.604;2023-04-25T00:22:39;8.35;;;7.65;;
66425;SDS011;53237;46.158;14.604;2023-04-25T00:25:05;10.85;;;9.85;;
66425;SDS011;53237;46.158;14.604;2023-04-25T00:27:31;11.50;;;10.40;;
66425;SDS011;53237;46.158;14.604;2023-04-25T00:29:57;12.75;;;11.55;;
66425;SDS011;53237;46.158;14.604;2023-04-25T00:32:24;13.57;;;12.35;;
66425;SDS011;53237;46.158;14.604;2023-04-25T00:34:49;16.08;;;14.48;;
66425;SDS011;53237;46.158;14.604;2023-04-25T00:37:15;11.45;;;10.45;;
66425;SDS011;53237;46.158;14.604;2023-04-25T00:39:43;15.40;;;13.85;;
66425;SDS011;53237;46.158;14.604;2023-04-25T00:42:09;12.65;;;11.43;;
66425;SDS011;53237;46.158;14.604;2023-04-25T00:44:35;11.32;;;10.30;;
66425;SDS011;53237;46.158;14.604;2023-04-25T00:47:02;12.30;;;11.10;;
66425;SDS011;53237;46.158;14.604;2023-04-25T00:49:28;12.63;;;11.32;;
66425;SDS011;53237;46.158;14.604;2023-04-25T00:51:54;11.77;;;10.68;;
66425;SDS011;53237;46.158;14.604;2023-04-25T00:54:21;14.77;;;13.05;;
66425;SDS011;53237;46.158;14.604;2023-04-25T00:56:47;13.88;;;12.48;;
66425;SDS011;53237;46.158;14.604;2023-04-25T00:59:15;13.00;;;11.70;;
66425;SDS011;53237;46.158;14.604;2023-04-25T01:01:41;13.23;;;11.93;;
66425;SDS011;53237;46.158;14.604;2023-04-25T01:04:07;12.52;;;11.43;;
66425;SDS011;53237;46.158;14.604;2023-04-25T01:06:33;15.57;;;13.88;;
66425;SDS011;53237;46.158;14.604;2023-04-25T01:08:59;14.80;;;13.32;;
66425;SDS011;53237;46.158;14.604;2023-04-25T01:11:25;13.80;;;12.45;;
66425;SDS011;53237;46.158;14.604;2023-04-25T01:13:51;11.38;;;10.27;;
66425;SDS011;53237;46.158;14.604;2023-04-25T01:16:17;11.27;;;10.18;;
66425;SDS011;53237;46.158;14.604;2023-04-25T01:18:43;13.75;;;12.35;;
66425;SDS011;53237;46.158;14.604;2023-04-25T01:21:13;11.40;;;10.30;;
66425;SDS011;53237;46.158;14.604;2023-04-25T01:23:40;10.93;;;9.93;;
66425;SDS011;53237;46.158;14.604;2023-04-25T01:26:07;12.27;;;11.07;;
66425;SDS011;53237;46.158;14.604;2023-04-25T01:28:34;11.55;;;10.45;;
66425;SDS011;53237;46.158;14.604;2023-04-25T01:31:00;12.25;;;11.07;;
66425;SDS011;53237;46.158;14.604;2023-04-25T01:33:27;12.15;;;10.98;;
66425;SDS011;53237;46.158;14.604;2023-04-25T01:35:53;12.15;;;11.05;;
66425;SDS011;53237;46.158;14.604;2023-04-25T01:38:19;11.65;;;10.45;;
66425;SDS011;53237;46.158;14.604;2023-04-25T01:40:45;12.70;;;11.40;;
66425;SDS011;53237;46.158;14.604;2023-04-25T01:43:12;11.77;;;10.57;;
66425;SDS011;53237;46.158;14.604;2023-04-25T01:45:39;11.60;;;10.50;;
66425;SDS011;53237;46.158;14.604;2023-04-25T01:48:06;10.18;;;9.27;;
66425;SDS011;53237;46.158;14.604;2023-04-25T01:50:32;10.77;;;9.77;;
66425;SDS011;53237;46.158;14.604;2023-04-25T01:52:59;9.93;;;9.02;;
66425;SDS011;53237;46.158;14.604;2023-04-25T01:55:25;10.07;;;9.13;;
66425;SDS011;53237;46.158;14.604;2023-04-25T01:57:51;9.35;;;8.55;;
66425;SDS011;53237;46.158;14.604;2023-04-25T02:00:17;9.45;;;8.55;;
66425;SDS011;53237;46.158;14.604;2023-04-25T02:02:43;9.45;;;8.55;;
66425;SDS011;53237;46.158;14.604;2023-04-25T02:05:09;10.65;;;9.65;;
66425;SDS011;53237;46.158;14.604;2023-04-25T02:07:35;10.50;;;9.45;;
66425;SDS011;53237;46.158;14.604;2023-04-25T02:10:02;11.55;;;10.35;;
66425;SDS011;53237;46.158;14.604;2023-04-25T02:12:28;11.18;;;9.95;;
66425;SDS011;53237;46.158;14.604;2023-04-25T02:14:55;9.82;;;8.93;;
66425;SDS011;53237;46.158;14.604;2023-04-25T02:17:22;9.20;;;8.30;;
66425;SDS011;53237;46.158;14.604;2023-04-25T02:19:48;8.70;;;7.90;;
66425;SDS011;53237;46.158;14.604;2023-04-25T02:22:15;9.82;;;8.82;;
66425;SDS011;53237;46.158;14.604;2023-04-25T02:24:41;8.68;;;7.88;;
66425;SDS011;53237;46.158;14.604;2023-04-25T02:27:07;10.07;;;9.07;;
66425;SDS011;53237;46.158;14.604;2023-04-25T02:29:33;8.95;;;8.05;;
66425;SDS011;53237;46.158;14.604;2023-04-25T02:31:59;9.40;;;8.52;;
66425;SDS011;53237;46.158;14.604;2023-04-25T02:34:25;8.27;;;7.53;;
66425;SDS011;53237;46.158;14.604;2023-04-25T02:36:51;8.15;;;7.32;;
66425;SDS011;53237;46.158;14.604;2023-04-25T02:39:17;8.27;;;7.47;;
66425;SDS011;53237;46.158;14.604;2023-04-25T02:41:43;9.10;;;8.20;;
66425;SDS011;53237;46.158;14.604;2023-04-25T02:44:09;7.85;;;7.15;;
66425;SDS011;53237;46.158;14.604;2023-04-25T02:46:35;7.30;;;6.60;;
66425;SDS011;53237;46.158;14.604;2023-04-25T02:49:01;7.72;;;7.03;;
66425;SDS011;53237;46.158;14.604;2023-04-25T02:51:27;8.80;;;8.00;;
66425;SDS011;53237;46.158;14.604;2023-04-25T02:53:53;7.72;;;7.03;;
66425;SDS011;53237;46.158;14.604;2023-04-25T02:56:19;7.15;;;6.50;;
66425;SDS011;53237;46.158;14.604;2023-04-25T02:58:45;7.63;;;6.93;;
66425;SDS011;53237;46.158;14.604;2023-04-25T03:01:11;6.93;;;6.32;;
66425;SDS011;53237;46.158;14.604;2023-04-25T03:03:37;7.22;;;6.63;;
66425;SDS011;53237;46.158;14.604;2023-04-25T03:06:03;6.95;;;6.35;;
66425;SDS011;53237;46.158;14.604;2023-04-25T03:08:29;7.57;;;6.78;;
66425;SDS011;53237;46.158;14.604;2023-04-25T03:10:57;6.43;;;5.93;;
66425;SDS011;53237;46.158;14.604;2023-04-25T03:13:24;6.18;;;5.57;;
66425;SDS011;53237;46.158;14.604;2023-04-25T03:15:50;5.53;;;5.03;;
66425;SDS011;53237;46.158;14.604;2023-04-25T03:18:16;5.72;;;5.22;;
66425;SDS011;53237;46.158;14.604;2023-04-25T03:20:42;5.70;;;5.20;;
66425;SDS011;53237;46.158;14.604;2023-04-25T03:23:08;5.20;;;4.80;;
66425;SDS011;53237;46.158;14.604;2023-04-25T03:25:34;6.03;;;5.43;;
66425;SDS011;53237;46.158;14.604;2023-04-25T03:28:00;5.38;;;4.88;;
66425;SDS011;53237;46.158;14.604;2023-04-25T03:30:26;5.28;;;4.78;;
66425;SDS011;53237;46.158;14.604;2023-04-25T03:32:52;5.43;;;4.90;;
66425;SDS011;53237;46.158;14.604;2023-04-25T03:35:18;5.38;;;4.88;;
66425;SDS011;53237;46.158;14.604;2023-04-25T03:37:45;5.15;;;4.75;;
66425;SDS011;53237;46.158;14.604;2023-04-25T03:40:11;5.43;;;4.55;;
66425;SDS011;53237;46.158;14.604;2023-04-25T03:42:37;5.13;;;4.70;;
66425;SDS011;53237;46.158;14.604;2023-04-25T03:45:03;5.18;;;4.78;;
66425;SDS011;53237;46.158;14.604;2023-04-25T03:47:29;5.05;;;4.55;;
66425;SDS011;53237;46.158;14.604;2023-04-25T03:49:55;5.22;;;4.07;;
66425;SDS011;53237;46.158;14.604;2023-04-25T03:52:21;4.80;;;4.40;;
66425;SDS011;53237;46.158;14.604;2023-04-25T03:54:47;4.45;;;4.05;;
66425;SDS011;53237;46.158;14.604;2023-04-25T03:57:13;7.05;;;6.45;;
66425;SDS011;53237;46.158;14.604;2023-04-25T03:59:40;7.10;;;5.07;;
66425;SDS011;53237;46.158;14.604;2023-04-25T04:02:06;6.20;;;5.60;;
66425;SDS011;53237;46.158;14.604;2023-04-25T04:04:32;6.32;;;5.72;;
66425;SDS011;53237;46.158;14.604;2023-04-25T04:06:58;5.60;;;5.03;;
66425;SDS011;53237;46.158;14.604;2023-04-25T04:09:24;6.07;;;5.47;;
66425;SDS011;53237;46.158;14.604;2023-04-25T04:11:51;5.53;;;5.03;;
66425;SDS011;53237;46.158;14.604;2023-04-25T04:14:17;5.35;;;4.85;;
66425;SDS011;53237;46.158;14.604;2023-04-25T04:16:43;5.30;;;4.80;;
66425;SDS011;53237;46.158;14.604;2023-04-25T04:19:09;5.53;;;5.03;;
66425;SDS011;53237;46.158;14.604;2023-04-25T04:21:35;5.60;;;5.10;;
66425;SDS011;53237;46.158;14.604;2023-04-25T04:24:01;5.20;;;4.80;;
66425;SDS011;53237;46.158;14.604;2023-04-25T04:26:27;5.20;;;4.70;;
66425;SDS011;53237;46.158;14.604;2023-04-25T04:28:54;5.13;;;4.72;;
66425;SDS011;53237;46.158;14.604;2023-04-25T04:31:20;4.80;;;4.40;;
66425;SDS011;53237;46.158;14.604;2023-04-25T04:33:47;4.70;;;4.15;;
66425;SDS011;53237;46.158;14.604;2023-04-25T04:36:13;4.40;;;4.00;;
66425;SDS011;53237;46.158;14.604;2023-04-25T04:38:40;5.18;;;4.60;;
66425;SDS011;53237;46.158;14.604;2023-04-25T04:41:07;6.55;;;5.95;;
66425;SDS011;53237;46.158;14.604;2023-04-25T04:43:33;4.47;;;4.07;;
66425;SDS011;53237;46.158;14.604;2023-04-25T04:46:02;5.00;;;4.60;;
66425;SDS011;53237;46.158;14.604;2023-04-25T04:48:29;4.57;;;4.18;;
66425;SDS011;53237;46.158;14.604;2023-04-25T04:50:57;5.55;;;4.82;;
66425;SDS011;53237;46.158;14.604;2023-04-25T04:53:23;4.22;;;3.88;;
66425;SDS011;53237;46.158;14.604;2023-04-25T04:55:50;3.80;;;3.50;;
66425;SDS011;53237;46.158;14.604;2023-04-25T04:58:16;4.07;;;3.67;;
66425;SDS011;53237;46.158;14.604;2023-04-25T05:00:42;4.18;;;3.88;;
66425;SDS011;53237;46.158;14.604;2023-04-25T05:03:08;4.18;;;3.70;;
66425;SDS011;53237;46.158;14.604;2023-04-25T05:05:34;3.90;;;3.55;;
66425;SDS011;53237;46.158;14.604;2023-04-25T05:08:00;3.55;;;3.25;;
66425;SDS011;53237;46.158;14.604;2023-04-25T05:10:26;3.38;;;3.08;;
66425;SDS011;53237;46.158;14.604;2023-04-25T05:12:52;3.55;;;3.25;;
66425;SDS011;53237;46.158;14.604;2023-04-25T05:15:18;5.00;;;3.70;;
66425;SDS011;53237;46.158;14.604;2023-04-25T05:17:44;3.05;;;2.75;;
66425;SDS011;53237;46.158;14.604;2023-04-25T05:20:10;4.72;;;3.60;;
66425;SDS011;53237;46.158;14.604;2023-04-25T05:22:37;3.97;;;3.58;;
66425;SDS011;53237;46.158;14.604;2023-04-25T05:25:03;6.93;;;5.82;;
66425;SDS011;53237;46.158;14.604;2023-04-25T05:27:29;4.82;;;4.38;;
66425;SDS011;53237;46.158;14.604;2023-04-25T05:29:55;3.63;;;3.33;;
66425;SDS011;53237;46.158;14.604;2023-04-25T05:32:21;4.15;;;3.40;;
66425;SDS011;53237;46.158;14.604;2023-04-25T05:34:47;3.50;;;3.17;;
66425;SDS011;53237;46.158;14.604;2023-04-25T05:37:13;3.70;;;3.33;;
66425;SDS011;53237;46.158;14.604;2023-04-25T05:39:39;3.63;;;3.33;;
66425;SDS011;53237;46.158;14.604;2023-04-25T05:42:05;7.20;;;4.75;;
66425;SDS011;53237;46.158;14.604;2023-04-25T05:44:31;4.82;;;3.88;;
66425;SDS011;53237;46.158;14.604;2023-04-25T05:46:57;4.65;;;4.25;;
66425;SDS011;53237;46.158;14.604;2023-04-25T05:49:23;5.30;;;4.80;;
66425;SDS011;53237;46.158;14.604;2023-04-25T05:51:49;5.00;;;4.30;;
66425;SDS011;53237;46.158;14.604;2023-04-25T05:54:15;8.27;;;7.45;;
66425;SDS011;53237;46.158;14.604;2023-04-25T05:56:41;4.50;;;4.10;;
66425;SDS011;53237;46.158;14.604;2023-04-25T05:59:07;4.57;;;4.18;;
66425;SDS011;53237;46.158;14.604;2023-04-25T06:01:33;4.57;;;4.18;;
66425;SDS011;53237;46.158;14.604;2023-04-25T06:03:59;5.18;;;4.68;;
66425;SDS011;53237;46.158;14.604;2023-04-25T06:06:26;4.22;;;3.83;;
66425;SDS011;53237;46.158;14.604;2023-04-25T06:08:52;4.30;;;3.90;;
66425;SDS011;53237;46.158;14.604;2023-04-25T06:11:19;4.00;;;3.60;;
66425;SDS011;53237;46.158;14.604;2023-04-25T06:13:45;7.75;;;5.80;;
66425;SDS011;53237;46.158;14.604;2023-04-25T06:16:11;5.80;;;5.30;;
66425;SDS011;53237;46.158;14.604;2023-04-25T06:18:37;4.45;;;3.90;;
66425;SDS011;53237;46.158;14.604;2023-04-25T06:21:03;7.00;;;6.30;;
66425;SDS011;53237;46.158;14.604;2023-04-25T06:23:29;5.65;;;5.15;;
66425;SDS011;53237;46.158;14.604;2023-04-25T06:25:55;5.07;;;4.45;;
66425;SDS011;53237;46.158;14.604;2023-04-25T06:28:21;5.10;;;4.60;;
66425;SDS011;53237;46.158;14.604;2023-04-25T06:30:49;4.50;;;4.10;;
66425;SDS011;53237;46.158;14.604;2023-04-25T06:33:15;4.72;;;4.22;;
66425;SDS011;53237;46.158;14.604;2023-04-25T06:35:41;5.68;;;5.18;;
66425;SDS011;53237;46.158;14.604;2023-04-25T06:38:07;4.22;;;3.88;;
66425;SDS011;53237;46.158;14.604;2023-04-25T06:40:33;4.82;;;4.43;;
66425;SDS011;53237;46.158;14.604;2023-04-25T06:42:59;5.20;;;4.70;;
66425;SDS011;53237;46.158;14.604;2023-04-25T06:45:25;5.13;;;4.72;;
66425;SDS011;53237;46.158;14.604;2023-04-25T06:47:51;4.45;;;3.83;;
66425;SDS011;53237;46.158;14.604;2023-04-25T06:50:17;4.72;;;4.32;;
66425;SDS011;53237;46.158;14.604;2023-04-25T06:52:43;4.90;;;4.40;;
66425;SDS011;53237;46.158;14.604;2023-04-25T06:55:09;4.82;;;4.10;;
66425;SDS011;53237;46.158;14.604;2023-04-25T06:57:35;6.28;;;5.70;;
66425;SDS011;53237;46.158;14.604;2023-04-25T07:00:02;4.53;;;4.13;;
66425;SDS011;53237;46.158;14.604;2023-04-25T07:02:30;7.20;;;6.50;;
66425;SDS011;53237;46.158;14.604;2023-04-25T07:04:56;5.82;;;5.32;;
66425;SDS011;53237;46.158;14.604;2023-04-25T07:07:24;5.93;;;5.43;;
66425;SDS011;53237;46.158;14.604;2023-04-25T07:09:50;6.68;;;6.07;;
66425;SDS011;53237;46.158;14.604;2023-04-25T07:12:16;5.18;;;4.78;;
66425;SDS011;53237;46.158;14.604;2023-04-25T07:14:44;7.50;;;6.80;;
66425;SDS011;53237;46.158;14.604;2023-04-25T07:17:10;4.90;;;4.50;;
66425;SDS011;53237;46.158;14.604;2023-04-25T07:19:36;6.13;;;5.63;;
66425;SDS011;53237;46.158;14.604;2023-04-25T07:22:03;4.30;;;3.90;;
66425;SDS011;53237;46.158;14.604;2023-04-25T07:24:29;4.28;;;3.97;;
66425;SDS011;53237;46.158;14.604;2023-04-25T07:26:55;5.60;;;5.10;;
66425;SDS011;53237;46.158;14.604;2023-04-25T07:29:22;5.47;;;4.97;;
66425;SDS011;53237;46.158;14.604;2023-04-25T07:31:48;5.57;;;5.18;;
66425;SDS011;53237;46.158;14.604;2023-04-25T07:34:14;4.20;;;3.90;;
66425;SDS011;53237;46.158;14.604;2023-04-25T07:36:41;4.03;;;3.72;;
66425;SDS011;53237;46.158;14.604;2023-04-25T07:39:07;3.67;;;3.38;;
66425;SDS011;53237;46.158;14.604;2023-04-25T07:41:37;3.40;;;3.10;;
66425;SDS011;53237;46.158;14.604;2023-04-25T07:44:03;4.18;;;3.33;;
66425;SDS011;53237;46.158;14.604;2023-04-25T07:46:29;2.95;;;2.75;;
66425;SDS011;53237;46.158;14.604;2023-04-25T07:48:55;3.22;;;3.03;;
66425;SDS011;53237;46.158;14.604;2023-04-25T07:51:21;3.22;;;2.95;;
66425;SDS011;53237;46.158;14.604;2023-04-25T07:53:47;3.08;;;2.88;;
66425;SDS011;53237;46.158;14.604;2023-04-25T07:56:13;3.88;;;3.33;;
66425;SDS011;53237;46.158;14.604;2023-04-25T07:58:39;4.18;;;3.15;;
66425;SDS011;53237;46.158;14.604;2023-04-25T08:01:05;2.70;;;2.50;;
66425;SDS011;53237;46.158;14.604;2023-04-25T08:03:31;3.28;;;3.03;;
66425;SDS011;53237;46.158;14.604;2023-04-25T08:05:57;3.00;;;2.80;;
66425;SDS011;53237;46.158;14.604;2023-04-25T08:08:23;3.47;;;3.00;;
66425;SDS011;53237;46.158;14.604;2023-04-25T08:10:50;3.20;;;2.67;;
66425;SDS011;53237;46.158;14.604;2023-04-25T08:13:16;3.20;;;2.90;;
66425;SDS011;53237;46.158;14.604;2023-04-25T08:15:42;3.05;;;2.78;;
66425;SDS011;53237;46.158;14.604;2023-04-25T08:18:08;3.15;;;2.88;;
66425;SDS011;53237;46.158;14.604;2023-04-25T08:20:34;3.40;;;3.20;;
66425;SDS011;53237;46.158;14.604;2023-04-25T08:23:00;3.20;;;3.00;;
66425;SDS011;53237;46.158;14.604;2023-04-25T08:25:26;3.47;;;3.17;;
66425;SDS011;53237;46.158;14.604;2023-04-25T08:27:52;4.50;;;3.03;;
66425;SDS011;53237;46.158;14.604;2023-04-25T08:30:18;5.22;;;3.08;;
66425;SDS011;53237;46.158;14.604;2023-04-25T08:32:45;3.00;;;2.78;;
66425;SDS011;53237;46.158;14.604;2023-04-25T08:35:11;3.78;;;2.80;;
66425;SDS011;53237;46.158;14.604;2023-04-25T08:37:37;3.15;;;2.83;;
66425;SDS011;53237;46.158;14.604;2023-04-25T08:40:04;2.80;;;2.60;;
66425;SDS011;53237;46.158;14.604;2023-04-25T08:42:32;3.35;;;3.05;;
66425;SDS011;53237;46.158;14.604;2023-04-25T08:45:00;3.00;;;2.70;;
66425;SDS011;53237;46.158;14.604;2023-04-25T08:47:27;3.20;;;2.90;;
66425;SDS011;53237;46.158;14.604;2023-04-25T08:49:55;2.90;;;2.70;;
66425;SDS011;53237;46.158;14.604;2023-04-25T08:52:22;2.85;;;2.60;;
66425;SDS011;53237;46.158;14.604;2023-04-25T08:54:49;2.53;;;2.33;;
66425;SDS011;53237;46.158;14.604;2023-04-25T08:57:15;2.60;;;2.40;;
66425;SDS011;53237;46.158;14.604;2023-04-25T08:59:41;2.90;;;2.70;;
66425;SDS011;53237;46.158;14.604;2023-04-25T09:02:11;4.53;;;2.85;;
66425;SDS011;53237;46.158;14.604;2023-04-25T09:04:42;2.80;;;2.60;;
66425;SDS011;53237;46.158;14.604;2023-04-25T09:07:08;3.22;;;3.03;;
66425;SDS011;53237;46.158;14.604;2023-04-25T09:09:34;3.13;;;2.83;;
66425;SDS011;53237;46.158;14.604;2023-04-25T09:12:01;3.00;;;2.72;;
66425;SDS011;53237;46.158;14.604;2023-04-25T09:14:27;2.67;;;2.47;;
66425;SDS011;53237;46.158;14.604;2023-04-25T09:19:26;3.97;;;2.97;;
66425;SDS011;53237;46.158;14.604;2023-04-25T09:21:56;3.72;;;3.08;;
66425;SDS011;53237;46.158;14.604;2023-04-25T09:24:35;2.80;;;2.50;;
66425;SDS011;53237;46.158;14.604;2023-04-25T09:27:20;2.85;;;2.45;;
66425;SDS011;53237;46.158;14.604;2023-04-25T09:29:56;2.70;;;2.40;;
66425;SDS011;53237;46.158;14.604;2023-04-25T09:32:23;3.00;;;2.50;;
66425;SDS011;53237;46.158;14.604;2023-04-25T09:34:50;2.78;;;2.58;;
66425;SDS011;53237;46.158;14.604;2023-04-25T09:37:17;2.28;;;2.08;;
66425;SDS011;53237;46.158;14.604;2023-04-25T09:39:44;2.20;;;2.10;;
66425;SDS011;53237;46.158;14.604;2023-04-25T09:42:11;2.78;;;2.55;;
66425;SDS011;53237;46.158;14.604;2023-04-25T09:44:40;4.40;;;2.90;;
66425;SDS011;53237;46.158;14.604;2023-04-25T09:47:09;3.58;;;2.60;;
66425;SDS011;53237;46.158;14.604;2023-04-25T09:49:38;2.17;;;2.03;;
66425;SDS011;53237;46.158;14.604;2023-04-25T09:52:05;2.33;;;2.13;;
66425;SDS011;53237;46.158;14.604;2023-04-25T09:54:31;2.75;;;2.55;;
66425;SDS011;53237;46.158;14.604;2023-04-25T09:56:57;2.80;;;2.60;;
66425;SDS011;53237;46.158;14.604;2023-04-25T09:59:24;2.95;;;2.75;;
66425;SDS011;53237;46.158;14.604;2023-04-25T10:01:50;2.65;;;2.45;;
66425;SDS011;53237;46.158;14.604;2023-04-25T10:04:22;3.35;;;3.10;;
66425;SDS011;53237;46.158;14.604;2023-04-25T10:06:49;2.90;;;2.65;;
66425;SDS011;53237;46.158;14.604;2023-04-25T10:09:15;2.72;;;2.53;;
66425;SDS011;53237;46.158;14.604;2023-04-25T10:11:44;2.50;;;2.25;;
66425;SDS011;53237;46.158;14.604;2023-04-25T10:14:10;2.97;;;2.40;;
66425;SDS011;53237;46.158;14.604;2023-04-25T10:16:36;3.75;;;3.40;;
66425;SDS011;53237;46.158;14.604;2023-04-25T10:19:03;3.30;;;3.00;;
66425;SDS011;53237;46.158;14.604;2023-04-25T10:21:29;4.15;;;3.75;;
66425;SDS011;53237;46.158;14.604;2023-04-25T10:23:57;4.40;;;3.92;;
66425;SDS011;53237;46.158;14.604;2023-04-25T10:26:23;3.45;;;3.05;;
66425;SDS011;53237;46.158;14.604;2023-04-25T10:29:04;4.18;;;3.78;;
66425;SDS011;53237;46.158;14.604;2023-04-25T10:31:30;4.07;;;3.10;;
66425;SDS011;53237;46.158;14.604;2023-04-25T10:33:56;3.05;;;2.80;;
66425;SDS011;53237;46.158;14.604;2023-04-25T10:36:23;2.33;;;2.13;;
66425;SDS011;53237;46.158;14.604;2023-04-25T10:38:52;3.22;;;2.92;;
66425;SDS011;53237;46.158;14.604;2023-04-25T10:41:19;5.90;;;4.82;;
66425;SDS011;53237;46.158;14.604;2023-04-25T10:43:46;3.22;;;2.72;;
66425;SDS011;53237;46.158;14.604;2023-04-25T10:48:49;3.28;;;2.97;;
66425;SDS011;53237;46.158;14.604;2023-04-25T10:51:16;5.05;;;3.03;;
66425;SDS011;53237;46.158;14.604;2023-04-25T10:53:43;3.22;;;2.92;;
66425;SDS011;53237;46.158;14.604;2023-04-25T10:56:19;3.17;;;2.33;;
66425;SDS011;53237;46.158;14.604;2023-04-25T10:58:46;2.70;;;2.50;;
66425;SDS011;53237;46.158;14.604;2023-04-25T11:01:19;2.92;;;2.42;;
66425;SDS011;53237;46.158;14.604;2023-04-25T11:03:45;2.47;;;2.35;;
66425;SDS011;53237;46.158;14.604;2023-04-25T11:07:00;2.63;;;2.42;;
66425;SDS011;53237;46.158;14.604;2023-04-25T11:09:02;2.80;;;2.55;;
66425;SDS011;53237;46.158;14.604;2023-04-25T11:11:28;2.40;;;2.20;;
66425;SDS011;53237;46.158;14.604;2023-04-25T11:13:55;2.58;;;2.38;;
66425;SDS011;53237;46.158;14.604;2023-04-25T11:16:23;2.55;;;2.33;;
66425;SDS011;53237;46.158;14.604;2023-04-25T11:18:50;3.00;;;2.00;;
66425;SDS011;53237;46.158;14.604;2023-04-25T11:21:16;2.95;;;1.98;;
66425;SDS011;53237;46.158;14.604;2023-04-25T11:23:44;2.22;;;1.85;;
66425;SDS011;53237;46.158;14.604;2023-04-25T11:26:10;1.80;;;1.70;;
66425;SDS011;53237;46.158;14.604;2023-04-25T11:28:36;1.70;;;1.60;;
66425;SDS011;53237;46.158;14.604;2023-04-25T11:31:02;2.92;;;1.70;;
66425;SDS011;53237;46.158;14.604;2023-04-25T11:33:28;2.10;;;1.90;;
66425;SDS011;53237;46.158;14.604;2023-04-25T11:35:55;2.20;;;2.10;;
66425;SDS011;53237;46.158;14.604;2023-04-25T11:38:24;3.65;;;3.20;;
66425;SDS011;53237;46.158;14.604;2023-04-25T11:40:51;2.83;;;2.63;;
66425;SDS011;53237;46.158;14.604;2023-04-25T11:43:19;2.50;;;2.30;;
66425;SDS011;53237;46.158;14.604;2023-04-25T11:45:46;2.10;;;2.00;;
66425;SDS011;53237;46.158;14.604;2023-04-25T11:48:12;2.47;;;2.28;;
66425;SDS011;53237;46.158;14.604;2023-04-25T11:50:39;1.50;;;1.40;;
66425;SDS011;53237;46.158;14.604;2023-04-25T11:53:05;2.15;;;1.95;;
66425;SDS011;53237;46.158;14.604;2023-04-25T11:55:32;1.50;;;1.40;;
66425;SDS011;53237;46.158;14.604;2023-04-25T11:57:59;2.55;;;1.50;;
66425;SDS011;53237;46.158;14.604;2023-04-25T12:00:25;1.73;;;1.63;;
66425;SDS011;53237;46.158;14.604;2023-04-25T12:02:53;2.28;;;1.70;;
66425;SDS011;53237;46.158;14.604;2023-04-25T12:05:19;1.60;;;1.50;;
66425;SDS011;53237;46.158;14.604;2023-04-25T12:07:46;2.42;;;1.83;;
66425;SDS011;53237;46.158;14.604;2023-04-25T12:10:13;1.75;;;1.65;;
66425;SDS011;53237;46.158;14.604;2023-04-25T12:12:43;1.50;;;1.40;;
66425;SDS011;53237;46.158;14.604;2023-04-25T12:17:35;1.55;;;1.45;;
66425;SDS011;53237;46.158;14.604;2023-04-25T12:20:09;1.20;;;1.20;;
66425;SDS011;53237;46.158;14.604;2023-04-25T12:22:35;1.42;;;1.33;;
66425;SDS011;53237;46.158;14.604;2023-04-25T12:25:02;1.40;;;1.30;;
66425;SDS011;53237;46.158;14.604;2023-04-25T12:27:32;2.22;;;1.95;;
66425;SDS011;53237;46.158;14.604;2023-04-25T12:29:58;1.60;;;1.50;;
66425;SDS011;53237;46.158;14.604;2023-04-25T12:32:25;1.70;;;1.60;;
66425;SDS011;53237;46.158;14.604;2023-04-25T12:34:51;2.17;;;2.00;;
66425;SDS011;53237;46.158;14.604;2023-04-25T12:37:17;2.13;;;1.92;;
66425;SDS011;53237;46.158;14.604;2023-04-25T12:39:43;1.60;;;1.50;;
66425;SDS011;53237;46.158;14.604;2023-04-25T12:42:10;2.22;;;1.80;;
66425;SDS011;53237;46.158;14.604;2023-04-25T12:44:39;1.40;;;1.30;;
66425;SDS011;53237;46.158;14.604;2023-04-25T12:47:05;2.65;;;1.30;;
66425;SDS011;53237;46.158;14.604;2023-04-25T12:49:31;1.45;;;1.35;;
66425;SDS011;53237;46.158;14.604;2023-04-25T12:51:58;1.65;;;1.40;;
66425;SDS011;53237;46.158;14.604;2023-04-25T12:54:24;1.25;;;1.15;;
66425;SDS011;53237;46.158;14.604;2023-04-25T12:56:50;1.27;;;1.20;;
66425;SDS011;53237;46.158;14.604;2023-04-25T12:59:17;1.40;;;1.30;;
66425;SDS011;53237;46.158;14.604;2023-04-25T13:01:45;3.80;;;1.65;;
66425;SDS011;53237;46.158;14.604;2023-04-25T13:04:11;1.55;;;1.40;;
66425;SDS011;53237;46.158;14.604;2023-04-25T13:06:37;2.00;;;1.80;;
66425;SDS011;53237;46.158;14.604;2023-04-25T13:09:03;1.73;;;1.63;;
66425;SDS011;53237;46.158;14.604;2023-04-25T13:11:29;1.70;;;1.60;;
66425;SDS011;53237;46.158;14.604;2023-04-25T13:13:56;1.70;;;1.60;;
66425;SDS011;53237;46.158;14.604;2023-04-25T13:16:22;1.90;;;1.80;;
66425;SDS011;53237;46.158;14.604;2023-04-25T13:18:48;2.88;;;1.48;;
66425;SDS011;53237;46.158;14.604;2023-04-25T13:21:14;1.73;;;1.63;;
66425;SDS011;53237;46.158;14.604;2023-04-25T13:23:40;1.92;;;1.73;;
66425;SDS011;53237;46.158;14.604;2023-04-25T13:26:07;1.42;;;1.30;;
66425;SDS011;53237;46.158;14.604;2023-04-25T13:28:33;1.60;;;1.40;;
66425;SDS011;53237;46.158;14.604;2023-04-25T13:30:59;1.15;;;1.15;;
66425;SDS011;53237;46.158;14.604;2023-04-25T13:33:26;3.70;;;1.30;;
66425;SDS011;53237;46.158;14.604;2023-04-25T13:35:52;1.08;;;1.08;;
66425;SDS011;53237;46.158;14.604;2023-04-25T13:38:24;1.38;;;1.10;;
66425;SDS011;53237;46.158;14.604;2023-04-25T13:40:50;1.23;;;1.13;;
66425;SDS011;53237;46.158;14.604;2023-04-25T13:43:20;1.65;;;1.33;;
66425;SDS011;53237;46.158;14.604;2023-04-25T13:45:49;1.40;;;1.30;;
66425;SDS011;53237;46.158;14.604;2023-04-25T13:48:16;1.70;;;1.35;;
66425;SDS011;53237;46.158;14.604;2023-04-25T13:50:42;1.45;;;1.35;;
66425;SDS011;53237;46.158;14.604;2023-04-25T13:53:08;1.30;;;1.20;;
66425;SDS011;53237;46.158;14.604;2023-04-25T13:55:34;1.50;;;1.40;;
66425;SDS011;53237;46.158;14.604;2023-04-25T13:58:03;1.55;;;1.23;;
66425;SDS011;53237;46.158;14.604;2023-04-25T14:00:37;1.30;;;1.20;;
66425;SDS011;53237;46.158;14.604;2023-04-25T14:03:05;1.35;;;1.20;;
66425;SDS011;53237;46.158;14.604;2023-04-25T14:05:32;1.15;;;1.08;;
66425;SDS011;53237;46.158;14.604;2023-04-25T14:08:02;0.82;;;0.82;;
66425;SDS011;53237;46.158;14.604;2023-04-25T14:10:28;1.08;;;1.00;;
66425;SDS011;53237;46.158;14.604;2023-04-25T14:12:54;1.25;;;0.90;;
66425;SDS011;53237;46.158;14.604;2023-04-25T14:15:20;2.50;;;0.98;;
66425;SDS011;53237;46.158;14.604;2023-04-25T14:17:47;1.23;;;1.00;;
66425;SDS011;53237;46.158;14.604;2023-04-25T14:20:13;1.00;;;1.00;;
66425;SDS011;53237;46.158;14.604;2023-04-25T14:22:39;1.67;;;1.20;;
66425;SDS011;53237;46.158;14.604;2023-04-25T14:25:08;0.93;;;0.93;;
66425;SDS011;53237;46.158;14.604;2023-04-25T14:27:35;1.05;;;0.90;;
66425;SDS011;53237;46.158;14.604;2023-04-25T14:30:01;1.02;;;0.80;;
66425;SDS011;53237;46.158;14.604;2023-04-25T14:32:27;1.88;;;1.00;;
66425;SDS011;53237;46.158;14.604;2023-04-25T14:34:53;0.93;;;0.93;;